createdAt,value
2017-11-13T00:00:26.535Z,5.63
2017-11-13T00:02:54.138Z,6.27
2017-11-13T00:05:21.702Z,6.60
2017-11-13T00:07:49.282Z,6.97
2017-11-13T00:10:16.952Z,7.37
2017-11-13T00:12:44.597Z,6.70
2017-11-13T00:15:12.902Z,7.00
2017-11-13T00:17:40.504Z,7.93
2017-11-13T00:20:08.080Z,7.20
2017-11-13T00:22:35.705Z,7.73
2017-11-13T00:25:03.276Z,7.37
2017-11-13T00:27:30.835Z,7.70
2017-11-13T00:29:58.437Z,7.43
2017-11-13T00:32:26.761Z,6.80
2017-11-13T00:34:54.346Z,6.73
2017-11-13T00:37:21.916Z,6.67
2017-11-13T00:39:50.333Z,7.00
2017-11-13T00:42:17.979Z,7.87
2017-11-13T00:44:45.544Z,6.90
2017-11-13T00:47:13.178Z,7.47
2017-11-13T00:49:41.511Z,7.43
2017-11-13T00:52:09.102Z,7.77
2017-11-13T00:54:36.668Z,7.53
2017-11-13T00:57:04.270Z,6.80
2017-11-13T00:59:31.838Z,6.73
2017-11-13T01:01:59.430Z,7.40
2017-11-13T01:04:27.021Z,6.90
2017-11-13T01:06:55.430Z,7.30
2017-11-13T01:09:22.997Z,7.60
2017-11-13T01:11:50.694Z,7.30
2017-11-13T01:14:18.343Z,7.73
2017-11-13T01:16:45.931Z,7.57
2017-11-13T01:19:13.506Z,7.13
2017-11-13T01:21:41.067Z,6.03
2017-11-13T01:24:08.639Z,6.77
2017-11-13T01:26:36.974Z,6.00
2017-11-13T01:29:04.588Z,6.23
2017-11-13T01:31:32.919Z,6.70
2017-11-13T01:34:00.488Z,6.50
2017-11-13T01:36:28.080Z,6.73
2017-11-13T01:38:56.522Z,7.10
2017-11-13T01:41:24.093Z,6.13
2017-11-13T01:43:51.840Z,6.30
2017-11-13T01:46:19.478Z,6.33
2017-11-13T01:48:47.066Z,7.20
2017-11-13T01:51:14.648Z,7.67
2017-11-13T01:53:42.268Z,6.57
2017-11-13T01:56:09.843Z,6.70
2017-11-13T01:58:37.431Z,5.70
2017-11-13T02:01:05.006Z,6.00
2017-11-13T02:03:33.372Z,7.07
2017-11-13T02:06:00.963Z,6.10
2017-11-13T02:08:29.379Z,5.97
2017-11-13T02:10:57.059Z,5.63
2017-11-13T02:13:24.657Z,6.13
2017-11-13T02:15:53.012Z,5.70
2017-11-13T02:18:20.658Z,6.10
2017-11-13T02:20:48.215Z,6.70
2017-11-13T02:23:15.791Z,6.03
2017-11-13T02:25:43.347Z,5.47
2017-11-13T02:28:10.910Z,5.70
2017-11-13T02:30:38.479Z,5.93
2017-11-13T02:33:06.061Z,5.13
2017-11-13T02:35:34.466Z,4.83
2017-11-13T02:38:02.027Z,4.43
2017-11-13T02:40:29.603Z,4.33
2017-11-13T02:42:57.251Z,4.77
2017-11-13T02:45:24.861Z,4.43
2017-11-13T02:47:52.450Z,4.33
2017-11-13T02:50:20.768Z,4.30
2017-11-13T02:52:48.355Z,4.10
2017-11-13T02:55:15.907Z,3.90
2017-11-13T02:57:43.479Z,3.70
2017-11-13T03:00:11.065Z,3.70
2017-11-13T03:02:38.655Z,3.80
2017-11-13T03:05:06.264Z,3.50
2017-11-13T03:07:33.843Z,3.47
2017-11-13T03:10:01.432Z,3.90
2017-11-13T03:12:29.044Z,3.50
2017-11-13T03:14:56.615Z,3.93
2017-11-13T03:17:24.199Z,4.10
2017-11-13T03:19:52.553Z,3.30
2017-11-13T03:22:20.127Z,3.50
2017-11-13T03:24:47.752Z,3.77
2017-11-13T03:27:15.325Z,3.50
2017-11-13T03:29:42.908Z,4.03
2017-11-13T03:32:10.485Z,3.10
2017-11-13T03:34:38.847Z,2.93
2017-11-13T03:37:06.432Z,3.30
2017-11-13T03:39:34.792Z,3.60
2017-11-13T03:42:02.403Z,3.00
2017-11-13T03:44:30.786Z,3.33
2017-11-13T03:46:58.562Z,3.00
2017-11-13T03:49:26.145Z,3.90
2017-11-13T03:51:53.707Z,3.50
2017-11-13T03:54:21.291Z,3.03
2017-11-13T03:56:49.660Z,2.90
2017-11-13T03:59:17.250Z,3.13
2017-11-13T04:01:44.811Z,3.13
2017-11-13T04:04:12.407Z,2.83
2017-11-13T04:06:39.967Z,2.93
2017-11-13T04:09:07.527Z,3.13
2017-11-13T04:11:35.125Z,2.73
2017-11-13T04:14:02.747Z,3.00
2017-11-13T04:16:30.325Z,3.43
2017-11-13T04:18:57.917Z,2.97
2017-11-13T04:21:25.496Z,2.90
2017-11-13T04:23:53.127Z,2.70
2017-11-13T04:26:20.688Z,3.07
2017-11-13T04:28:48.275Z,2.80
2017-11-13T04:31:16.615Z,3.03
2017-11-13T04:33:44.202Z,2.87
2017-11-13T04:36:11.744Z,3.17
2017-11-13T04:38:39.380Z,3.30
2017-11-13T04:41:06.964Z,2.90
2017-11-13T04:43:34.534Z,2.97
2017-11-13T04:46:02.147Z,2.90
2017-11-13T04:48:29.735Z,2.80
2017-11-13T04:50:57.304Z,3.23
2017-11-13T04:53:24.879Z,2.87
2017-11-13T04:55:52.440Z,2.50
2017-11-13T04:58:20.059Z,2.57
2017-11-13T05:00:47.633Z,2.40
2017-11-13T05:03:15.386Z,2.80
2017-11-13T05:05:43.004Z,2.77
2017-11-13T05:08:10.549Z,3.07
2017-11-13T05:10:38.204Z,2.90
2017-11-13T05:13:05.805Z,3.10
2017-11-13T05:15:34.155Z,2.53
2017-11-13T05:18:01.743Z,2.80
2017-11-13T05:20:30.128Z,3.27
2017-11-13T05:22:57.691Z,2.87
2017-11-13T05:25:25.332Z,2.97
2017-11-13T05:27:53.691Z,2.53
2017-11-13T05:30:21.258Z,2.33
2017-11-13T05:32:49.114Z,3.03
2017-11-13T05:35:16.699Z,2.70
2017-11-13T05:37:45.047Z,2.73
2017-11-13T05:40:12.627Z,2.50
2017-11-13T05:42:40.320Z,2.53
2017-11-13T05:45:08.653Z,2.80
2017-11-13T05:47:36.267Z,2.40
2017-11-13T05:50:03.817Z,2.73
2017-11-13T05:52:32.145Z,2.73
2017-11-13T05:54:59.735Z,2.37
2017-11-13T05:57:27.414Z,2.80
2017-11-13T05:59:55.772Z,2.70
2017-11-13T06:02:23.348Z,3.10
2017-11-13T06:04:51.694Z,2.07
2017-11-13T06:07:19.273Z,2.80
2017-11-13T06:09:46.888Z,2.80
2017-11-13T06:12:14.455Z,2.13
2017-11-13T06:14:42.041Z,2.40
2017-11-13T06:17:09.663Z,2.60
2017-11-13T06:19:37.292Z,2.90
2017-11-13T06:22:05.655Z,3.20
2017-11-13T06:24:33.224Z,2.27
2017-11-13T06:27:00.799Z,2.10
2017-11-13T06:29:29.150Z,3.30
2017-11-13T06:31:56.724Z,2.30
2017-11-13T06:34:24.335Z,2.50
2017-11-13T06:36:51.928Z,2.53
2017-11-13T06:39:19.519Z,2.20
2017-11-13T06:41:47.841Z,2.20
2017-11-13T06:44:15.426Z,2.87
2017-11-13T06:46:42.993Z,2.77
2017-11-13T06:49:10.555Z,3.17
2017-11-13T06:51:42.148Z,3.00
2017-11-13T06:54:16.532Z,3.67
2017-11-13T06:56:45.478Z,3.30
2017-11-13T06:59:13.080Z,3.10
2017-11-13T07:01:40.672Z,3.10
2017-11-13T07:04:14.414Z,3.20
2017-11-13T07:06:55.022Z,3.47
2017-11-13T07:09:32.413Z,3.13
2017-11-13T07:12:00.888Z,3.20
2017-11-13T07:14:31.577Z,3.10
2017-11-13T07:17:05.259Z,3.20
2017-11-13T07:19:35.299Z,3.33
2017-11-13T07:22:03.806Z,2.93
2017-11-13T07:24:41.272Z,3.10
2017-11-13T07:27:10.152Z,3.53
2017-11-13T07:29:38.684Z,2.97
2017-11-13T07:32:06.277Z,3.03
2017-11-13T07:34:33.861Z,3.53
2017-11-13T07:37:01.498Z,2.83
2017-11-13T07:39:29.065Z,3.80
2017-11-13T07:41:57.480Z,3.30
2017-11-13T07:44:25.131Z,3.40
2017-11-13T07:46:52.728Z,2.90
2017-11-13T07:49:20.307Z,3.60
2017-11-13T07:51:47.935Z,3.20
2017-11-13T07:54:15.527Z,2.80
2017-11-13T07:56:43.121Z,2.80
2017-11-13T07:59:11.464Z,3.67
2017-11-13T08:01:39.466Z,2.97
2017-11-13T08:04:07.832Z,3.13
2017-11-13T08:06:35.424Z,3.93
2017-11-13T08:09:03.021Z,3.73
2017-11-13T08:11:30.595Z,2.77
2017-11-13T08:13:58.187Z,3.90
2017-11-13T08:16:28.260Z,2.87
2017-11-13T08:18:56.551Z,3.10
2017-11-13T08:21:24.406Z,2.87
2017-11-13T08:23:52.025Z,3.50
2017-11-13T08:26:20.397Z,3.17
2017-11-13T08:28:48.801Z,3.27
2017-11-13T08:31:16.370Z,2.93
2017-11-13T08:33:43.941Z,3.07
2017-11-13T08:36:11.550Z,3.30
2017-11-13T08:38:39.131Z,3.50
2017-11-13T08:41:15.585Z,3.40
2017-11-13T08:43:46.363Z,3.77
2017-11-13T08:46:13.973Z,3.63
2017-11-13T08:48:41.541Z,3.60
2017-11-13T08:51:09.896Z,4.20
2017-11-13T08:53:37.480Z,3.50
2017-11-13T08:56:05.827Z,5.63
2017-11-13T08:58:33.388Z,3.87
2017-11-13T09:01:00.989Z,3.53
2017-11-13T09:03:29.339Z,3.00
2017-11-13T09:05:56.920Z,3.40
2017-11-13T09:08:24.531Z,3.33
2017-11-13T09:10:52.118Z,4.17
2017-11-13T09:13:19.691Z,3.67
2017-11-13T09:15:47.277Z,3.73
2017-11-13T09:18:14.869Z,3.97
2017-11-13T09:20:42.457Z,3.87
2017-11-13T09:23:10.042Z,2.77
2017-11-13T09:25:37.615Z,3.57
2017-11-13T09:28:05.958Z,3.80
2017-11-13T09:30:33.535Z,3.57
2017-11-13T09:33:01.175Z,3.30
2017-11-13T09:35:28.791Z,4.80
2017-11-13T09:37:56.382Z,3.40
2017-11-13T09:40:23.930Z,4.10
2017-11-13T09:42:51.552Z,4.17
2017-11-13T09:45:19.131Z,2.97
2017-11-13T09:47:47.503Z,4.03
2017-11-13T09:50:15.831Z,2.93
2017-11-13T09:52:43.425Z,2.77
2017-11-13T09:55:11.004Z,2.43
2017-11-13T09:57:39.391Z,2.53
2017-11-13T10:00:07.722Z,2.80
2017-11-13T10:02:35.523Z,2.90
2017-11-13T10:05:03.911Z,2.90
2017-11-13T10:07:32.260Z,2.90
2017-11-13T10:09:59.845Z,3.20
2017-11-13T10:12:28.182Z,3.13
2017-11-13T10:14:55.800Z,3.13
2017-11-13T10:17:23.380Z,3.67
2017-11-13T10:19:51.003Z,3.10
2017-11-13T10:22:19.325Z,3.00
2017-11-13T10:24:46.896Z,3.30
2017-11-13T10:27:14.527Z,3.23
2017-11-13T10:29:42.095Z,2.80
2017-11-13T10:32:09.668Z,3.33
2017-11-13T10:34:37.249Z,3.70
2017-11-13T10:37:04.817Z,4.20
2017-11-13T10:39:32.395Z,4.10
2017-11-13T10:42:00.022Z,3.37
2017-11-13T10:44:27.616Z,3.17
2017-11-13T10:46:55.200Z,3.17
2017-11-13T10:49:23.537Z,2.93
2017-11-13T10:51:51.218Z,3.20
2017-11-13T10:54:18.776Z,3.20
2017-11-13T10:56:46.361Z,3.20
2017-11-13T10:59:14.763Z,2.70
2017-11-13T11:01:42.403Z,3.20
2017-11-13T11:04:10.747Z,3.07
2017-11-13T11:06:38.395Z,2.63
2017-11-13T11:09:05.987Z,3.13
2017-11-13T11:11:33.792Z,2.93
2017-11-13T11:14:07.056Z,2.20
2017-11-13T11:16:40.342Z,3.83
2017-11-13T11:19:22.805Z,2.20
2017-11-13T11:22:05.339Z,2.50
2017-11-13T11:24:33.972Z,2.17
2017-11-13T11:27:06.960Z,2.77
2017-11-13T11:29:40.858Z,2.40
2017-11-13T11:32:10.923Z,2.50
2017-11-13T11:34:44.403Z,2.83
2017-11-13T11:37:15.621Z,2.10
2017-11-13T11:39:43.186Z,2.60
2017-11-13T11:42:10.868Z,2.57
2017-11-13T11:44:41.111Z,2.30
2017-11-13T11:47:08.682Z,2.43
2017-11-13T11:49:43.046Z,2.33
2017-11-13T11:52:10.639Z,2.43
2017-11-13T11:54:48.101Z,2.20
2017-11-13T11:57:32.441Z,2.70
2017-11-13T12:00:00.025Z,2.33
2017-11-13T12:02:27.588Z,3.00
2017-11-13T12:04:55.984Z,3.23
2017-11-13T12:07:24.310Z,2.40
2017-11-13T12:09:51.896Z,2.50
2017-11-13T12:12:19.500Z,2.40
2017-11-13T12:14:47.093Z,2.90
2017-11-13T12:17:14.733Z,2.60
2017-11-13T12:19:42.312Z,2.90
2017-11-13T12:22:09.900Z,3.03
2017-11-13T12:24:37.488Z,2.60
2017-11-13T12:27:05.092Z,3.30
2017-11-13T12:29:32.708Z,3.00
2017-11-13T12:32:01.081Z,2.87
2017-11-13T12:34:29.434Z,2.90
2017-11-13T12:36:57.013Z,2.90
2017-11-13T12:39:25.368Z,3.03
2017-11-13T12:41:52.995Z,2.40
2017-11-13T12:44:20.563Z,3.00
2017-11-13T12:46:48.151Z,3.43
2017-11-13T12:49:15.786Z,3.53
2017-11-13T12:51:43.371Z,2.83
2017-11-13T12:54:10.950Z,2.43
2017-11-13T12:56:38.536Z,3.00
2017-11-13T12:59:06.863Z,2.37
2017-11-13T13:01:34.443Z,3.07
2017-11-13T13:04:02.052Z,3.03
2017-11-13T13:06:29.664Z,2.47
2017-11-13T13:08:57.254Z,2.73
2017-11-13T13:11:25.665Z,2.73
2017-11-13T13:13:53.431Z,3.10
2017-11-13T13:16:21.041Z,2.97
2017-11-13T13:18:48.636Z,2.83
2017-11-13T13:21:16.975Z,2.83
2017-11-13T13:23:46.529Z,3.13
2017-11-13T13:26:15.649Z,3.30
2017-11-13T13:28:47.823Z,3.37
2017-11-13T13:33:55.066Z,2.60
2017-11-13T13:36:23.834Z,2.70
2017-11-13T13:38:51.511Z,3.07
2017-11-13T13:41:22.511Z,2.70
2017-11-13T13:43:50.136Z,2.30
2017-11-13T13:46:18.535Z,2.20
2017-11-13T13:48:46.107Z,2.73
2017-11-13T13:51:14.985Z,2.57
2017-11-13T13:53:42.591Z,3.50
2017-11-13T13:56:10.281Z,2.40
2017-11-13T13:58:38.047Z,3.20
2017-11-13T14:01:05.589Z,2.57
2017-11-13T14:03:33.163Z,2.90
2017-11-13T14:06:01.187Z,2.87
2017-11-13T14:08:28.748Z,3.83
2017-11-13T14:10:56.331Z,3.50
2017-11-13T14:13:23.943Z,3.50
2017-11-13T14:15:51.527Z,2.47
2017-11-13T14:18:19.234Z,2.17
2017-11-13T14:20:46.831Z,3.17
2017-11-13T14:23:14.423Z,3.00
2017-11-13T14:25:42.843Z,2.97
2017-11-13T14:28:11.253Z,2.90
2017-11-13T14:30:42.040Z,2.70
2017-11-13T14:33:15.072Z,2.70
2017-11-13T14:35:45.285Z,2.23
2017-11-13T14:38:13.892Z,3.83
2017-11-13T14:40:41.516Z,3.23
2017-11-13T14:43:10.388Z,5.00
2017-11-13T14:45:40.239Z,4.13
2017-11-13T14:48:07.891Z,3.53
2017-11-13T14:50:35.457Z,3.60
2017-11-13T14:53:03.848Z,3.00
2017-11-13T14:55:32.182Z,3.47
2017-11-13T14:57:59.774Z,3.40
2017-11-13T15:00:27.587Z,4.97
2017-11-13T15:02:55.172Z,4.40
2017-11-13T15:05:22.825Z,3.80
2017-11-13T15:07:50.422Z,4.10
2017-11-13T15:10:18.766Z,4.53
2017-11-13T15:12:46.367Z,8.03
2017-11-13T15:15:13.925Z,5.60
2017-11-13T15:17:41.570Z,5.40
2017-11-13T15:20:09.137Z,6.33
2017-11-13T15:22:36.731Z,6.57
2017-11-13T15:25:05.079Z,5.40
2017-11-13T15:27:32.671Z,6.73
2017-11-13T15:30:00.255Z,5.37
2017-11-13T15:32:27.908Z,5.77
2017-11-13T15:34:55.556Z,4.93
2017-11-13T15:37:23.159Z,4.60
2017-11-13T15:39:50.799Z,4.93
2017-11-13T15:42:18.414Z,5.40
2017-11-13T15:44:46.018Z,5.07
2017-11-13T15:47:13.606Z,4.97
2017-11-13T15:49:41.221Z,5.23
2017-11-13T15:52:08.855Z,6.60
2017-11-13T15:54:36.480Z,4.60
2017-11-13T15:57:04.103Z,4.87
2017-11-13T15:59:32.437Z,6.23
2017-11-13T16:02:00.008Z,5.03
2017-11-13T16:04:27.656Z,4.93
2017-11-13T16:06:55.260Z,5.50
2017-11-13T16:09:23.605Z,4.20
2017-11-13T16:11:51.167Z,5.30
2017-11-13T16:14:18.821Z,4.70
2017-11-13T16:16:46.399Z,3.73
2017-11-13T16:19:13.963Z,5.07
2017-11-13T16:21:41.599Z,4.40
2017-11-13T16:24:09.217Z,5.27
2017-11-13T16:26:37.567Z,4.60
2017-11-13T16:29:05.184Z,4.23
2017-11-13T16:31:33.544Z,4.13
2017-11-13T16:34:01.216Z,4.10
2017-11-13T16:36:28.790Z,4.17
2017-11-13T16:38:56.392Z,5.20
2017-11-13T16:41:23.973Z,4.50
2017-11-13T16:43:52.366Z,7.73
2017-11-13T16:46:20.743Z,6.87
2017-11-13T16:48:49.101Z,6.30
2017-11-13T16:51:16.717Z,4.90
2017-11-13T16:53:44.336Z,6.50
2017-11-13T16:56:11.925Z,5.70
2017-11-13T16:58:39.487Z,6.53
2017-11-13T17:01:07.096Z,4.00
2017-11-13T17:03:34.675Z,5.07
2017-11-13T17:06:02.307Z,4.77
2017-11-13T17:08:29.888Z,6.70
2017-11-13T17:10:57.496Z,4.00
2017-11-13T17:13:26.012Z,4.90
2017-11-13T17:15:53.586Z,5.93
2017-11-13T17:18:21.118Z,4.50
2017-11-13T17:20:48.682Z,4.93
2017-11-13T17:23:16.343Z,5.50
2017-11-13T17:25:43.966Z,4.33
2017-11-13T17:28:12.540Z,4.83
2017-11-13T17:30:40.889Z,5.20
2017-11-13T17:33:08.634Z,4.80
2017-11-13T17:35:36.240Z,6.27
2017-11-13T17:38:03.861Z,5.77
2017-11-13T17:40:31.453Z,5.27
2017-11-13T17:42:59.096Z,5.60
2017-11-13T17:45:26.693Z,5.70
2017-11-13T17:47:55.055Z,5.03
2017-11-13T17:50:22.673Z,4.73
2017-11-13T17:52:50.290Z,5.63
2017-11-13T17:55:18.689Z,5.87
2017-11-13T17:57:46.304Z,6.10
2017-11-13T18:00:13.902Z,5.33
2017-11-13T18:02:42.271Z,5.30
2017-11-13T18:05:10.623Z,4.97
2017-11-13T18:07:38.242Z,4.80
2017-11-13T18:10:05.859Z,4.20
2017-11-13T18:12:33.522Z,4.50
2017-11-13T18:15:01.123Z,4.83
2017-11-13T18:17:29.756Z,4.90
2017-11-13T18:19:57.345Z,4.17
2017-11-13T18:22:25.731Z,3.30
2017-11-13T18:24:54.147Z,4.57
2017-11-13T18:27:21.728Z,3.87
2017-11-13T18:29:49.348Z,4.27
2017-11-13T18:32:18.680Z,4.00
2017-11-13T18:34:46.336Z,4.53
2017-11-13T18:37:13.942Z,4.83
2017-11-13T18:39:41.525Z,4.73
2017-11-13T18:42:09.993Z,3.90
2017-11-13T18:44:37.579Z,3.97
2017-11-13T18:47:05.935Z,4.00
2017-11-13T18:49:33.522Z,4.30
2017-11-13T18:52:01.139Z,4.40
2017-11-13T18:54:28.797Z,3.80
2017-11-13T18:56:56.404Z,4.00
2017-11-13T18:59:24.759Z,3.67
2017-11-13T19:01:52.328Z,3.87
2017-11-13T19:04:20.717Z,4.60
2017-11-13T19:06:49.274Z,4.40
2017-11-13T19:09:23.139Z,5.17
2017-11-13T19:11:50.748Z,4.27
2017-11-13T19:14:18.378Z,4.90
2017-11-13T19:16:46.326Z,4.47
2017-11-13T19:19:13.911Z,5.40
2017-11-13T19:21:41.500Z,4.37
2017-11-13T19:24:09.103Z,4.57
2017-11-13T19:26:36.700Z,4.47
2017-11-13T19:29:04.350Z,3.80
2017-11-13T19:31:31.965Z,3.37
2017-11-13T19:34:00.327Z,3.53
2017-11-13T19:36:28.156Z,4.30
2017-11-13T19:38:56.524Z,3.70
2017-11-13T19:54:24.800Z,3.80
2017-11-13T19:56:53.924Z,4.43
2017-11-13T19:59:23.391Z,3.90
2017-11-13T20:01:55.137Z,3.47
2017-11-13T20:04:27.884Z,3.50
2017-11-13T20:06:55.526Z,3.40
2017-11-13T20:09:23.899Z,3.57
2017-11-13T20:11:51.559Z,3.77
2017-11-13T20:14:25.945Z,4.50
2017-11-13T20:17:07.639Z,4.93
2017-11-13T20:19:35.392Z,7.27
2017-11-13T20:22:07.142Z,7.10
2017-11-13T20:24:35.898Z,6.00
2017-11-13T20:27:04.045Z,5.63
2017-11-13T20:29:31.623Z,4.33
2017-11-13T20:31:59.259Z,4.97
2017-11-13T20:34:27.341Z,4.90
2017-11-13T20:36:55.010Z,6.20
2017-11-13T20:39:22.615Z,6.97
2017-11-13T20:41:50.244Z,7.83
2017-11-13T20:44:18.859Z,6.47
2017-11-13T20:46:47.195Z,6.67
2017-11-13T20:49:16.304Z,6.50
2017-11-13T20:51:44.013Z,6.73
2017-11-13T20:54:12.480Z,5.90
2017-11-13T20:56:40.936Z,6.50
2017-11-13T20:59:08.559Z,5.33
2017-11-13T21:01:36.240Z,6.23
2017-11-13T21:04:03.844Z,6.63
2017-11-13T21:06:31.479Z,6.70
2017-11-13T21:08:59.087Z,6.63
2017-11-13T21:11:27.484Z,5.00
2017-11-13T21:13:55.108Z,4.90
2017-11-13T21:16:22.777Z,5.30
2017-11-13T21:19:08.418Z,5.90
2017-11-13T21:21:36.494Z,5.53
2017-11-13T21:24:11.762Z,5.27
2017-11-13T21:26:39.572Z,4.90
2017-11-13T21:29:07.995Z,5.13
2017-11-13T21:31:35.595Z,5.33
2017-11-13T21:47:03.232Z,5.60
2017-11-13T21:49:30.829Z,6.53
2017-11-13T21:51:58.461Z,6.60
2017-11-13T21:54:26.082Z,6.57
2017-11-13T21:56:53.662Z,7.87
2017-11-13T21:59:21.388Z,7.33
2017-11-13T22:01:49.016Z,7.30
2017-11-13T22:04:16.655Z,7.23
2017-11-13T22:06:44.228Z,6.47
2017-11-13T22:09:11.886Z,7.77
2017-11-13T22:11:39.485Z,7.00
2017-11-13T22:14:07.820Z,6.37
2017-11-13T22:16:35.559Z,6.10
2017-11-13T22:19:03.135Z,6.13
2017-11-13T22:21:30.721Z,5.80
2017-11-13T22:23:58.303Z,5.53
2017-11-13T22:26:26.668Z,5.90
2017-11-13T22:28:54.287Z,5.07
2017-11-13T22:31:21.857Z,6.03
2017-11-13T22:33:49.445Z,5.40
2017-11-13T22:36:16.996Z,6.43
2017-11-13T22:38:44.586Z,4.90
2017-11-13T22:41:12.920Z,5.60
2017-11-13T22:43:40.548Z,6.00
2017-11-13T22:46:08.111Z,6.23
2017-11-13T22:48:35.683Z,7.00
2017-11-13T22:51:03.263Z,7.40
2017-11-13T22:53:30.823Z,7.90
2017-11-13T22:55:58.418Z,6.50
2017-11-13T22:58:25.979Z,7.57
2017-11-13T23:00:53.575Z,6.17
2017-11-13T23:03:21.156Z,6.20
2017-11-13T23:05:48.764Z,6.13
2017-11-13T23:08:16.337Z,6.33
2017-11-13T23:10:44.680Z,6.60
2017-11-13T23:13:12.255Z,5.30
2017-11-13T23:15:39.828Z,6.50
2017-11-13T23:18:08.204Z,7.20
2017-11-13T23:20:35.800Z,6.80
2017-11-13T23:23:03.356Z,6.63
2017-11-13T23:25:30.946Z,6.30
2017-11-13T23:27:58.521Z,5.50
2017-11-13T23:30:26.113Z,6.53
2017-11-13T23:32:54.485Z,6.20
2017-11-13T23:35:22.104Z,6.70
2017-11-13T23:37:49.688Z,5.60
2017-11-13T23:40:17.432Z,6.50
2017-11-13T23:42:45.000Z,7.27
2017-11-13T23:45:12.591Z,7.90
2017-11-13T23:47:40.251Z,7.30
2017-11-13T23:50:07.844Z,7.03
2017-11-13T23:52:35.459Z,7.40
2017-11-13T23:55:03.032Z,6.50
2017-11-13T23:57:30.610Z,7.27
2017-11-13T23:59:58.959Z,7.63
